sensor_id;sensor_type;location;lat;lon;timestamp;temperature;humidity
318;DHT22;146;53.448;10.228;2023-09-19T00:01:39;18.10;1.00
318;DHT22;146;53.448;10.228;2023-09-19T00:04:07;18.10;1.00
318;DHT22;146;53.448;10.228;2023-09-19T00:06:36;17.90;1.00
318;DHT22;146;53.448;10.228;2023-09-19T00:09:03;17.90;1.00
318;DHT22;146;53.448;10.228;2023-09-19T00:11:30;17.90;1.00
318;DHT22;146;53.448;10.228;2023-09-19T00:13:57;17.90;1.00
318;DHT22;146;53.448;10.228;2023-09-19T00:16:28;17.90;1.00
318;DHT22;146;53.448;10.228;2023-09-19T00:18:55;17.90;1.00
318;DHT22;146;53.448;10.228;2023-09-19T00:21:23;17.90;1.00
318;DHT22;146;53.448;10.228;2023-09-19T00:23:49;17.90;1.00
318;DHT22;146;53.448;10.228;2023-09-19T00:26:18;17.90;1.00
318;DHT22;146;53.448;10.228;2023-09-19T00:28:46;17.80;1.00
318;DHT22;146;53.448;10.228;2023-09-19T00:31:13;17.80;1.00
318;DHT22;146;53.448;10.228;2023-09-19T00:33:40;17.80;1.00
318;DHT22;146;53.448;10.228;2023-09-19T00:36:08;17.80;1.00
318;DHT22;146;53.448;10.228;2023-09-19T00:38:38;17.80;1.00
318;DHT22;146;53.448;10.228;2023-09-19T00:41:05;17.80;1.00
318;DHT22;146;53.448;10.228;2023-09-19T00:43:35;17.70;1.00
318;DHT22;146;53.448;10.228;2023-09-19T00:46:02;17.60;1.00
318;DHT22;146;53.448;10.228;2023-09-19T00:48:30;17.60;1.00
318;DHT22;146;53.448;10.228;2023-09-19T00:50:59;17.60;1.00
318;DHT22;146;53.448;10.228;2023-09-19T00:53:31;17.60;1.00
318;DHT22;146;53.448;10.228;2023-09-19T00:56:02;17.60;1.00
318;DHT22;146;53.448;10.228;2023-09-19T00:58:29;17.70;1.00
318;DHT22;146;53.448;10.228;2023-09-19T01:00:59;17.70;1.00
318;DHT22;146;53.448;10.228;2023-09-19T01:03:26;17.80;1.00
318;DHT22;146;53.448;10.228;2023-09-19T01:05:54;17.80;1.00
318;DHT22;146;53.448;10.228;2023-09-19T01:08:21;17.80;1.00
318;DHT22;146;53.448;10.228;2023-09-19T01:10:52;17.80;1.00
318;DHT22;146;53.448;10.228;2023-09-19T01:13:29;17.80;1.00
318;DHT22;146;53.448;10.228;2023-09-19T01:16:06;17.70;1.00
318;DHT22;146;53.448;10.228;2023-09-19T01:18:43;17.80;1.00
318;DHT22;146;53.448;10.228;2023-09-19T01:21:20;17.80;1.00
318;DHT22;146;53.448;10.228;2023-09-19T01:24:16;17.90;1.00
318;DHT22;146;53.448;10.228;2023-09-19T01:27:06;17.90;1.00
318;DHT22;146;53.448;10.228;2023-09-19T01:29:46;17.90;1.00
318;DHT22;146;53.448;10.228;2023-09-19T01:32:17;17.90;1.00
318;DHT22;146;53.448;10.228;2023-09-19T01:34:47;17.90;1.00
318;DHT22;146;53.448;10.228;2023-09-19T01:37:15;17.90;1.00
318;DHT22;146;53.448;10.228;2023-09-19T01:39:46;17.90;1.00
318;DHT22;146;53.448;10.228;2023-09-19T01:42:21;17.90;1.00
318;DHT22;146;53.448;10.228;2023-09-19T01:44:57;17.80;1.00
318;DHT22;146;53.448;10.228;2023-09-19T01:47:33;17.80;1.00
318;DHT22;146;53.448;10.228;2023-09-19T01:50:07;17.80;1.00
318;DHT22;146;53.448;10.228;2023-09-19T01:52:40;17.80;1.00
318;DHT22;146;53.448;10.228;2023-09-19T01:55:12;17.80;1.00
318;DHT22;146;53.448;10.228;2023-09-19T01:57:49;17.80;1.00
318;DHT22;146;53.448;10.228;2023-09-19T02:00:21;17.80;1.00
318;DHT22;146;53.448;10.228;2023-09-19T02:02:51;17.70;1.00
318;DHT22;146;53.448;10.228;2023-09-19T02:05:25;17.80;1.00
318;DHT22;146;53.448;10.228;2023-09-19T02:07:53;17.70;1.00
318;DHT22;146;53.448;10.228;2023-09-19T02:10:21;17.80;1.00
318;DHT22;146;53.448;10.228;2023-09-19T02:12:48;17.80;1.00
318;DHT22;146;53.448;10.228;2023-09-19T02:15:16;17.70;1.00
318;DHT22;146;53.448;10.228;2023-09-19T02:17:43;17.80;1.00
318;DHT22;146;53.448;10.228;2023-09-19T02:20:13;17.60;1.00
318;DHT22;146;53.448;10.228;2023-09-19T02:22:41;17.60;1.00
318;DHT22;146;53.448;10.228;2023-09-19T02:25:14;17.50;1.00
318;DHT22;146;53.448;10.228;2023-09-19T02:27:41;17.40;1.00
318;DHT22;146;53.448;10.228;2023-09-19T02:30:08;17.40;1.00
318;DHT22;146;53.448;10.228;2023-09-19T02:32:35;17.50;1.00
318;DHT22;146;53.448;10.228;2023-09-19T02:35:06;17.50;1.00
318;DHT22;146;53.448;10.228;2023-09-19T02:37:34;17.50;1.00
318;DHT22;146;53.448;10.228;2023-09-19T02:40:01;17.50;1.00
318;DHT22;146;53.448;10.228;2023-09-19T02:42:44;17.50;1.00
318;DHT22;146;53.448;10.228;2023-09-19T02:45:15;17.50;1.00
318;DHT22;146;53.448;10.228;2023-09-19T02:47:43;17.50;1.00
318;DHT22;146;53.448;10.228;2023-09-19T02:50:11;17.30;1.00
318;DHT22;146;53.448;10.228;2023-09-19T02:52:42;17.40;1.00
318;DHT22;146;53.448;10.228;2023-09-19T02:55:09;17.40;1.00
318;DHT22;146;53.448;10.228;2023-09-19T02:57:37;17.40;1.00
318;DHT22;146;53.448;10.228;2023-09-19T03:00:07;17.40;1.00
318;DHT22;146;53.448;10.228;2023-09-19T03:02:36;17.40;1.00
318;DHT22;146;53.448;10.228;2023-09-19T03:05:06;17.40;1.00
318;DHT22;146;53.448;10.228;2023-09-19T03:07:37;17.40;1.00
318;DHT22;146;53.448;10.228;2023-09-19T03:10:06;17.30;1.00
318;DHT22;146;53.448;10.228;2023-09-19T03:12:34;17.30;1.00
318;DHT22;146;53.448;10.228;2023-09-19T03:15:01;17.30;1.00
318;DHT22;146;53.448;10.228;2023-09-19T03:17:36;17.30;1.00
318;DHT22;146;53.448;10.228;2023-09-19T03:20:04;17.30;1.00
318;DHT22;146;53.448;10.228;2023-09-19T03:22:34;17.20;1.00
318;DHT22;146;53.448;10.228;2023-09-19T03:25:01;17.30;1.00
318;DHT22;146;53.448;10.228;2023-09-19T03:27:30;17.30;1.00
318;DHT22;146;53.448;10.228;2023-09-19T03:29:57;17.30;1.00
318;DHT22;146;53.448;10.228;2023-09-19T03:32:24;17.20;1.00
318;DHT22;146;53.448;10.228;2023-09-19T03:34:52;17.30;1.00
318;DHT22;146;53.448;10.228;2023-09-19T03:37:19;17.10;1.00
318;DHT22;146;53.448;10.228;2023-09-19T03:39:46;17.10;1.00
318;DHT22;146;53.448;10.228;2023-09-19T03:42:13;17.10;1.00
318;DHT22;146;53.448;10.228;2023-09-19T03:44:44;17.10;1.00
318;DHT22;146;53.448;10.228;2023-09-19T03:47:11;17.10;1.00
318;DHT22;146;53.448;10.228;2023-09-19T03:49:41;17.20;1.00
318;DHT22;146;53.448;10.228;2023-09-19T03:52:08;17.10;1.00
318;DHT22;146;53.448;10.228;2023-09-19T03:54:35;17.10;1.00
318;DHT22;146;53.448;10.228;2023-09-19T03:57:02;17.00;1.00
318;DHT22;146;53.448;10.228;2023-09-19T03:59:30;16.90;1.00
318;DHT22;146;53.448;10.228;2023-09-19T04:02:00;16.90;1.00
318;DHT22;146;53.448;10.228;2023-09-19T04:04:27;17.00;1.00
318;DHT22;146;53.448;10.228;2023-09-19T04:06:58;16.80;1.00
318;DHT22;146;53.448;10.228;2023-09-19T04:09:27;16.60;1.00
318;DHT22;146;53.448;10.228;2023-09-19T04:11:54;16.60;1.00
318;DHT22;146;53.448;10.228;2023-09-19T04:14:22;16.50;1.00
318;DHT22;146;53.448;10.228;2023-09-19T04:16:50;16.50;1.00
318;DHT22;146;53.448;10.228;2023-09-19T04:19:18;16.40;1.00
318;DHT22;146;53.448;10.228;2023-09-19T04:21:45;16.40;1.00
318;DHT22;146;53.448;10.228;2023-09-19T04:24:12;16.30;1.00
318;DHT22;146;53.448;10.228;2023-09-19T04:26:39;16.10;1.00
318;DHT22;146;53.448;10.228;2023-09-19T04:29:07;16.10;1.00
318;DHT22;146;53.448;10.228;2023-09-19T04:31:37;16.20;1.00
318;DHT22;146;53.448;10.228;2023-09-19T04:34:09;16.10;1.00
318;DHT22;146;53.448;10.228;2023-09-19T04:36:37;16.00;1.00
318;DHT22;146;53.448;10.228;2023-09-19T04:39:07;15.90;1.00
318;DHT22;146;53.448;10.228;2023-09-19T04:41:36;16.00;1.00
318;DHT22;146;53.448;10.228;2023-09-19T04:44:05;15.90;1.00
318;DHT22;146;53.448;10.228;2023-09-19T04:46:33;15.80;1.00
318;DHT22;146;53.448;10.228;2023-09-19T04:49:01;15.80;1.00
318;DHT22;146;53.448;10.228;2023-09-19T04:51:28;15.80;1.00
318;DHT22;146;53.448;10.228;2023-09-19T04:54:01;15.80;1.00
318;DHT22;146;53.448;10.228;2023-09-19T04:56:28;15.80;1.00
318;DHT22;146;53.448;10.228;2023-09-19T04:58:56;15.80;1.00
318;DHT22;146;53.448;10.228;2023-09-19T05:01:27;15.70;1.00
318;DHT22;146;53.448;10.228;2023-09-19T05:03:54;15.60;1.00
318;DHT22;146;53.448;10.228;2023-09-19T05:06:21;15.60;1.00
318;DHT22;146;53.448;10.228;2023-09-19T05:08:48;15.60;1.00
318;DHT22;146;53.448;10.228;2023-09-19T05:11:18;15.60;1.00
318;DHT22;146;53.448;10.228;2023-09-19T05:13:48;15.60;1.00
318;DHT22;146;53.448;10.228;2023-09-19T05:16:16;15.60;1.00
318;DHT22;146;53.448;10.228;2023-09-19T05:18:43;15.60;1.00
318;DHT22;146;53.448;10.228;2023-09-19T05:21:10;15.70;1.00
318;DHT22;146;53.448;10.228;2023-09-19T05:23:37;15.70;1.00
318;DHT22;146;53.448;10.228;2023-09-19T05:26:05;15.60;1.00
318;DHT22;146;53.448;10.228;2023-09-19T05:28:36;15.60;1.00
318;DHT22;146;53.448;10.228;2023-09-19T05:31:03;15.50;1.00
318;DHT22;146;53.448;10.228;2023-09-19T05:33:30;15.50;1.00
318;DHT22;146;53.448;10.228;2023-09-19T05:35:58;15.50;1.00
318;DHT22;146;53.448;10.228;2023-09-19T05:38:25;15.50;1.00
318;DHT22;146;53.448;10.228;2023-09-19T05:40:54;15.40;1.00
318;DHT22;146;53.448;10.228;2023-09-19T05:43:21;15.40;1.00
318;DHT22;146;53.448;10.228;2023-09-19T05:45:49;15.40;1.00
318;DHT22;146;53.448;10.228;2023-09-19T05:48:17;15.40;1.00
318;DHT22;146;53.448;10.228;2023-09-19T05:50:46;15.40;1.00
318;DHT22;146;53.448;10.228;2023-09-19T05:53:14;15.40;1.00
318;DHT22;146;53.448;10.228;2023-09-19T05:55:41;15.40;1.00
318;DHT22;146;53.448;10.228;2023-09-19T05:58:08;15.40;1.00
318;DHT22;146;53.448;10.228;2023-09-19T06:00:40;15.30;1.00
318;DHT22;146;53.448;10.228;2023-09-19T06:03:11;15.40;1.00
318;DHT22;146;53.448;10.228;2023-09-19T06:05:40;15.30;1.00
318;DHT22;146;53.448;10.228;2023-09-19T06:08:07;15.40;1.00
318;DHT22;146;53.448;10.228;2023-09-19T06:10:35;15.50;1.00
318;DHT22;146;53.448;10.228;2023-09-19T06:13:05;15.50;1.00
318;DHT22;146;53.448;10.228;2023-09-19T06:15:35;15.50;1.00
318;DHT22;146;53.448;10.228;2023-09-19T06:18:02;15.60;1.00
318;DHT22;146;53.448;10.228;2023-09-19T06:20:32;15.60;1.00
318;DHT22;146;53.448;10.228;2023-09-19T06:22:58;15.60;1.00
318;DHT22;146;53.448;10.228;2023-09-19T06:25:27;15.80;1.00
318;DHT22;146;53.448;10.228;2023-09-19T06:27:54;15.90;1.00
318;DHT22;146;53.448;10.228;2023-09-19T06:30:24;16.00;1.00
318;DHT22;146;53.448;10.228;2023-09-19T06:32:55;16.10;1.00
318;DHT22;146;53.448;10.228;2023-09-19T06:35:23;16.00;1.00
318;DHT22;146;53.448;10.228;2023-09-19T06:37:56;16.10;1.00
318;DHT22;146;53.448;10.228;2023-09-19T06:40:23;16.10;1.00
318;DHT22;146;53.448;10.228;2023-09-19T06:42:51;16.10;1.00
318;DHT22;146;53.448;10.228;2023-09-19T06:45:19;16.30;1.00
318;DHT22;146;53.448;10.228;2023-09-19T06:47:48;16.20;1.00
318;DHT22;146;53.448;10.228;2023-09-19T06:50:16;16.30;1.00
318;DHT22;146;53.448;10.228;2023-09-19T06:52:44;16.30;1.00
318;DHT22;146;53.448;10.228;2023-09-19T06:55:14;16.30;1.00
318;DHT22;146;53.448;10.228;2023-09-19T06:57:41;16.40;1.00
318;DHT22;146;53.448;10.228;2023-09-19T07:00:09;16.40;1.00
318;DHT22;146;53.448;10.228;2023-09-19T07:02:41;16.50;1.00
318;DHT22;146;53.448;10.228;2023-09-19T07:05:08;16.70;1.00
318;DHT22;146;53.448;10.228;2023-09-19T07:07:35;16.70;1.00
318;DHT22;146;53.448;10.228;2023-09-19T07:10:05;16.80;1.00
318;DHT22;146;53.448;10.228;2023-09-19T07:12:42;16.90;1.00
318;DHT22;146;53.448;10.228;2023-09-19T07:15:09;17.00;1.00
318;DHT22;146;53.448;10.228;2023-09-19T07:17:36;17.00;1.00
318;DHT22;146;53.448;10.228;2023-09-19T07:20:14;17.10;1.00
318;DHT22;146;53.448;10.228;2023-09-19T07:22:41;17.00;1.00
318;DHT22;146;53.448;10.228;2023-09-19T07:25:08;17.10;1.00
318;DHT22;146;53.448;10.228;2023-09-19T07:27:35;17.20;1.00
318;DHT22;146;53.448;10.228;2023-09-19T07:30:04;17.10;1.00
318;DHT22;146;53.448;10.228;2023-09-19T07:32:32;17.20;1.00
318;DHT22;146;53.448;10.228;2023-09-19T07:35:00;17.10;1.00
318;DHT22;146;53.448;10.228;2023-09-19T07:37:28;17.10;1.00
318;DHT22;146;53.448;10.228;2023-09-19T07:39:56;17.10;1.00
318;DHT22;146;53.448;10.228;2023-09-19T07:42:23;17.10;1.00
318;DHT22;146;53.448;10.228;2023-09-19T07:44:51;17.20;1.00
318;DHT22;146;53.448;10.228;2023-09-19T07:47:20;17.20;1.00
318;DHT22;146;53.448;10.228;2023-09-19T07:49:47;17.20;1.00
318;DHT22;146;53.448;10.228;2023-09-19T07:52:14;17.20;1.00
318;DHT22;146;53.448;10.228;2023-09-19T07:54:42;17.30;1.00
318;DHT22;146;53.448;10.228;2023-09-19T07:57:10;17.50;1.00
318;DHT22;146;53.448;10.228;2023-09-19T07:59:37;17.40;1.00
318;DHT22;146;53.448;10.228;2023-09-19T08:02:04;17.50;1.00
318;DHT22;146;53.448;10.228;2023-09-19T08:04:35;17.50;1.00
318;DHT22;146;53.448;10.228;2023-09-19T08:07:02;17.40;1.00
318;DHT22;146;53.448;10.228;2023-09-19T08:09:32;17.40;1.00
318;DHT22;146;53.448;10.228;2023-09-19T08:11:59;17.30;1.00
318;DHT22;146;53.448;10.228;2023-09-19T08:14:29;17.30;1.00
318;DHT22;146;53.448;10.228;2023-09-19T08:16:57;17.20;1.00
318;DHT22;146;53.448;10.228;2023-09-19T08:19:24;17.20;1.00
318;DHT22;146;53.448;10.228;2023-09-19T08:21:56;17.20;1.00
318;DHT22;146;53.448;10.228;2023-09-19T08:24:24;17.30;1.00
318;DHT22;146;53.448;10.228;2023-09-19T08:26:53;17.30;1.00
318;DHT22;146;53.448;10.228;2023-09-19T08:29:21;17.20;1.00
318;DHT22;146;53.448;10.228;2023-09-19T08:31:53;17.20;1.00
318;DHT22;146;53.448;10.228;2023-09-19T08:34:21;17.10;1.00
318;DHT22;146;53.448;10.228;2023-09-19T08:36:50;17.30;1.00
318;DHT22;146;53.448;10.228;2023-09-19T08:39:18;17.40;1.00
318;DHT22;146;53.448;10.228;2023-09-19T08:41:45;17.40;1.00
318;DHT22;146;53.448;10.228;2023-09-19T08:44:12;17.40;1.00
318;DHT22;146;53.448;10.228;2023-09-19T08:46:46;17.40;1.00
318;DHT22;146;53.448;10.228;2023-09-19T08:49:19;17.50;1.00
318;DHT22;146;53.448;10.228;2023-09-19T08:52:05;17.50;1.00
318;DHT22;146;53.448;10.228;2023-09-19T08:54:38;17.50;1.00
318;DHT22;146;53.448;10.228;2023-09-19T08:57:07;17.70;1.00
318;DHT22;146;53.448;10.228;2023-09-19T08:59:38;17.80;1.00
318;DHT22;146;53.448;10.228;2023-09-19T09:02:11;17.90;1.00
318;DHT22;146;53.448;10.228;2023-09-19T09:04:39;18.00;1.00
318;DHT22;146;53.448;10.228;2023-09-19T09:07:11;17.90;1.00
318;DHT22;146;53.448;10.228;2023-09-19T09:09:39;17.90;1.00
318;DHT22;146;53.448;10.228;2023-09-19T09:12:09;18.00;1.00
318;DHT22;146;53.448;10.228;2023-09-19T09:14:38;18.10;1.00
318;DHT22;146;53.448;10.228;2023-09-19T09:17:05;18.10;1.00
318;DHT22;146;53.448;10.228;2023-09-19T09:19:32;18.20;1.00
318;DHT22;146;53.448;10.228;2023-09-19T09:22:06;18.40;1.00
318;DHT22;146;53.448;10.228;2023-09-19T09:24:34;18.30;1.00
318;DHT22;146;53.448;10.228;2023-09-19T09:27:05;18.40;1.00
318;DHT22;146;53.448;10.228;2023-09-19T09:29:42;18.40;1.00
318;DHT22;146;53.448;10.228;2023-09-19T09:32:23;18.30;1.00
318;DHT22;146;53.448;10.228;2023-09-19T09:34:52;18.30;1.00
318;DHT22;146;53.448;10.228;2023-09-19T09:37:20;18.30;1.00
318;DHT22;146;53.448;10.228;2023-09-19T09:39:52;18.30;1.00
318;DHT22;146;53.448;10.228;2023-09-19T09:42:34;18.50;1.00
318;DHT22;146;53.448;10.228;2023-09-19T09:45:22;18.60;1.00
318;DHT22;146;53.448;10.228;2023-09-19T09:47:54;18.60;1.00
318;DHT22;146;53.448;10.228;2023-09-19T09:50:28;18.60;1.00
318;DHT22;146;53.448;10.228;2023-09-19T09:53:22;18.60;1.00
318;DHT22;146;53.448;10.228;2023-09-19T09:56:01;18.70;1.00
318;DHT22;146;53.448;10.228;2023-09-19T09:58:33;18.70;1.00
318;DHT22;146;53.448;10.228;2023-09-19T10:01:02;18.60;1.00
318;DHT22;146;53.448;10.228;2023-09-19T10:03:40;18.60;1.00
318;DHT22;146;53.448;10.228;2023-09-19T10:06:11;18.70;1.00
318;DHT22;146;53.448;10.228;2023-09-19T10:09:04;18.70;1.00
318;DHT22;146;53.448;10.228;2023-09-19T10:11:40;18.70;1.00
318;DHT22;146;53.448;10.228;2023-09-19T10:14:11;18.80;1.00
318;DHT22;146;53.448;10.228;2023-09-19T10:16:42;19.00;1.00
318;DHT22;146;53.448;10.228;2023-09-19T10:19:15;19.10;1.00
318;DHT22;146;53.448;10.228;2023-09-19T10:21:44;19.30;1.00
318;DHT22;146;53.448;10.228;2023-09-19T10:24:13;19.40;1.00
318;DHT22;146;53.448;10.228;2023-09-19T10:26:42;19.50;1.00
318;DHT22;146;53.448;10.228;2023-09-19T10:29:31;19.50;1.00
318;DHT22;146;53.448;10.228;2023-09-19T10:32:03;19.40;1.00
318;DHT22;146;53.448;10.228;2023-09-19T10:34:34;19.40;1.00
318;DHT22;146;53.448;10.228;2023-09-19T10:37:02;19.30;1.00
318;DHT22;146;53.448;10.228;2023-09-19T10:39:32;19.20;1.00
318;DHT22;146;53.448;10.228;2023-09-19T10:42:02;19.00;1.00
318;DHT22;146;53.448;10.228;2023-09-19T10:44:33;19.00;1.00
318;DHT22;146;53.448;10.228;2023-09-19T10:47:03;19.00;1.00
318;DHT22;146;53.448;10.228;2023-09-19T10:49:33;19.20;1.00
318;DHT22;146;53.448;10.228;2023-09-19T10:52:01;19.10;1.00
318;DHT22;146;53.448;10.228;2023-09-19T10:54:33;18.80;1.00
318;DHT22;146;53.448;10.228;2023-09-19T10:57:03;18.90;1.00
318;DHT22;146;53.448;10.228;2023-09-19T10:59:32;19.10;1.00
318;DHT22;146;53.448;10.228;2023-09-19T11:02:16;19.20;1.00
318;DHT22;146;53.448;10.228;2023-09-19T11:04:44;19.40;1.00
318;DHT22;146;53.448;10.228;2023-09-19T11:07:14;19.50;1.00
318;DHT22;146;53.448;10.228;2023-09-19T11:09:43;19.60;1.00
318;DHT22;146;53.448;10.228;2023-09-19T11:12:51;19.60;1.00
318;DHT22;146;53.448;10.228;2023-09-19T11:19:03;19.70;1.00
318;DHT22;146;53.448;10.228;2023-09-19T11:22:01;19.60;1.00
318;DHT22;146;53.448;10.228;2023-09-19T11:24:32;19.70;1.00
318;DHT22;146;53.448;10.228;2023-09-19T11:27:12;19.70;1.00
318;DHT22;146;53.448;10.228;2023-09-19T11:33:16;20.00;1.00
318;DHT22;146;53.448;10.228;2023-09-19T11:36:06;19.90;1.00
318;DHT22;146;53.448;10.228;2023-09-19T11:38:59;19.80;1.00
318;DHT22;146;53.448;10.228;2023-09-19T11:41:40;19.70;1.00
318;DHT22;146;53.448;10.228;2023-09-19T11:44:32;19.70;1.00
318;DHT22;146;53.448;10.228;2023-09-19T11:47:05;19.60;1.00
318;DHT22;146;53.448;10.228;2023-09-19T11:49:32;19.70;1.00
318;DHT22;146;53.448;10.228;2023-09-19T11:52:02;19.70;1.00
318;DHT22;146;53.448;10.228;2023-09-19T11:54:31;19.70;1.00
318;DHT22;146;53.448;10.228;2023-09-19T11:56:59;19.70;1.00
318;DHT22;146;53.448;10.228;2023-09-19T11:59:28;19.60;1.00
318;DHT22;146;53.448;10.228;2023-09-19T12:01:56;19.60;1.00
318;DHT22;146;53.448;10.228;2023-09-19T12:04:35;19.60;1.00
318;DHT22;146;53.448;10.228;2023-09-19T12:07:06;19.50;1.00
318;DHT22;146;53.448;10.228;2023-09-19T12:09:38;19.40;1.00
318;DHT22;146;53.448;10.228;2023-09-19T12:12:06;19.30;1.00
318;DHT22;146;53.448;10.228;2023-09-19T12:14:33;19.30;1.00
318;DHT22;146;53.448;10.228;2023-09-19T12:17:00;19.30;1.00
318;DHT22;146;53.448;10.228;2023-09-19T12:19:29;19.50;1.00
318;DHT22;146;53.448;10.228;2023-09-19T12:21:56;19.60;1.00
318;DHT22;146;53.448;10.228;2023-09-19T12:24:27;19.50;1.00
318;DHT22;146;53.448;10.228;2023-09-19T12:27:00;19.60;1.00
318;DHT22;146;53.448;10.228;2023-09-19T12:29:27;19.60;1.00
318;DHT22;146;53.448;10.228;2023-09-19T12:31:56;19.80;1.00
318;DHT22;146;53.448;10.228;2023-09-19T12:34:25;19.90;1.00
318;DHT22;146;53.448;10.228;2023-09-19T12:37:06;19.90;1.00
318;DHT22;146;53.448;10.228;2023-09-19T12:39:44;19.90;1.00
318;DHT22;146;53.448;10.228;2023-09-19T12:42:15;20.10;1.00
318;DHT22;146;53.448;10.228;2023-09-19T12:44:44;20.10;1.00
318;DHT22;146;53.448;10.228;2023-09-19T12:47:12;20.20;1.00
318;DHT22;146;53.448;10.228;2023-09-19T12:50:06;20.20;1.00
318;DHT22;146;53.448;10.228;2023-09-19T12:52:39;20.20;1.00
318;DHT22;146;53.448;10.228;2023-09-19T12:55:07;20.30;1.00
318;DHT22;146;53.448;10.228;2023-09-19T12:57:36;20.30;1.00
318;DHT22;146;53.448;10.228;2023-09-19T13:00:06;20.10;1.00
318;DHT22;146;53.448;10.228;2023-09-19T13:02:36;20.10;1.00
318;DHT22;146;53.448;10.228;2023-09-19T13:05:03;20.00;1.00
318;DHT22;146;53.448;10.228;2023-09-19T13:07:43;20.00;1.00
318;DHT22;146;53.448;10.228;2023-09-19T13:10:14;20.20;1.00
318;DHT22;146;53.448;10.228;2023-09-19T13:12:42;20.30;1.00
318;DHT22;146;53.448;10.228;2023-09-19T13:15:14;20.20;1.00
318;DHT22;146;53.448;10.228;2023-09-19T13:17:45;20.10;1.00
318;DHT22;146;53.448;10.228;2023-09-19T13:20:21;20.30;1.00
318;DHT22;146;53.448;10.228;2023-09-19T13:22:53;20.30;1.00
318;DHT22;146;53.448;10.228;2023-09-19T13:25:26;20.30;1.00
318;DHT22;146;53.448;10.228;2023-09-19T13:27:58;20.30;1.00
318;DHT22;146;53.448;10.228;2023-09-19T13:30:27;20.40;1.00
318;DHT22;146;53.448;10.228;2023-09-19T13:33:04;20.50;1.00
318;DHT22;146;53.448;10.228;2023-09-19T13:35:32;20.50;1.00
318;DHT22;146;53.448;10.228;2023-09-19T13:37:59;20.50;1.00
318;DHT22;146;53.448;10.228;2023-09-19T13:40:28;20.50;1.00
318;DHT22;146;53.448;10.228;2023-09-19T13:42:57;20.60;1.00
318;DHT22;146;53.448;10.228;2023-09-19T13:45:25;20.60;1.00
318;DHT22;146;53.448;10.228;2023-09-19T13:47:55;20.70;1.00
318;DHT22;146;53.448;10.228;2023-09-19T13:50:21;20.70;1.00
318;DHT22;146;53.448;10.228;2023-09-19T13:52:50;20.70;1.00
318;DHT22;146;53.448;10.228;2023-09-19T13:55:18;20.70;1.00
318;DHT22;146;53.448;10.228;2023-09-19T13:57:47;20.60;1.00
318;DHT22;146;53.448;10.228;2023-09-19T14:00:15;20.50;1.00
318;DHT22;146;53.448;10.228;2023-09-19T14:02:43;20.50;1.00
318;DHT22;146;53.448;10.228;2023-09-19T14:05:11;20.50;1.00
318;DHT22;146;53.448;10.228;2023-09-19T14:07:40;20.50;1.00
318;DHT22;146;53.448;10.228;2023-09-19T14:10:09;20.30;1.00
318;DHT22;146;53.448;10.228;2023-09-19T14:12:36;20.20;1.00
318;DHT22;146;53.448;10.228;2023-09-19T14:15:06;20.10;1.00
318;DHT22;146;53.448;10.228;2023-09-19T14:17:33;20.20;1.00
318;DHT22;146;53.448;10.228;2023-09-19T14:20:00;20.20;1.00
318;DHT22;146;53.448;10.228;2023-09-19T14:22:27;20.20;1.00
318;DHT22;146;53.448;10.228;2023-09-19T14:24:54;20.30;1.00
318;DHT22;146;53.448;10.228;2023-09-19T14:27:21;20.30;1.00
318;DHT22;146;53.448;10.228;2023-09-19T14:29:47;20.30;1.00
318;DHT22;146;53.448;10.228;2023-09-19T14:32:16;20.20;1.00
318;DHT22;146;53.448;10.228;2023-09-19T14:34:45;20.20;1.00
318;DHT22;146;53.448;10.228;2023-09-19T14:37:12;20.30;1.00
318;DHT22;146;53.448;10.228;2023-09-19T14:39:41;20.30;1.00
318;DHT22;146;53.448;10.228;2023-09-19T14:42:10;20.20;1.00
318;DHT22;146;53.448;10.228;2023-09-19T14:44:38;20.10;1.00
318;DHT22;146;53.448;10.228;2023-09-19T14:47:05;20.10;1.00
318;DHT22;146;53.448;10.228;2023-09-19T14:49:35;20.00;1.00
318;DHT22;146;53.448;10.228;2023-09-19T14:52:08;20.00;1.00
318;DHT22;146;53.448;10.228;2023-09-19T14:54:36;19.90;1.00
318;DHT22;146;53.448;10.228;2023-09-19T14:57:04;19.80;1.00
318;DHT22;146;53.448;10.228;2023-09-19T14:59:30;19.60;1.00
318;DHT22;146;53.448;10.228;2023-09-19T15:01:58;19.60;1.00
318;DHT22;146;53.448;10.228;2023-09-19T15:04:25;19.60;1.00
318;DHT22;146;53.448;10.228;2023-09-19T15:06:53;19.60;1.00
318;DHT22;146;53.448;10.228;2023-09-19T15:09:20;19.70;1.00
318;DHT22;146;53.448;10.228;2023-09-19T15:11:47;19.70;1.00
318;DHT22;146;53.448;10.228;2023-09-19T15:14:14;19.70;1.00
318;DHT22;146;53.448;10.228;2023-09-19T15:16:41;19.80;1.00
318;DHT22;146;53.448;10.228;2023-09-19T15:19:09;19.90;1.00
318;DHT22;146;53.448;10.228;2023-09-19T15:21:36;19.90;1.00
318;DHT22;146;53.448;10.228;2023-09-19T15:24:06;19.90;1.00
318;DHT22;146;53.448;10.228;2023-09-19T15:26:35;19.80;1.00
318;DHT22;146;53.448;10.228;2023-09-19T15:29:04;19.90;1.00
318;DHT22;146;53.448;10.228;2023-09-19T15:31:31;19.80;1.00
318;DHT22;146;53.448;10.228;2023-09-19T15:33:58;19.90;1.00
318;DHT22;146;53.448;10.228;2023-09-19T15:36:26;20.00;1.00
318;DHT22;146;53.448;10.228;2023-09-19T15:38:58;20.00;1.00
318;DHT22;146;53.448;10.228;2023-09-19T15:41:29;20.00;1.00
318;DHT22;146;53.448;10.228;2023-09-19T15:43:57;20.00;1.00
318;DHT22;146;53.448;10.228;2023-09-19T15:46:24;20.10;1.00
318;DHT22;146;53.448;10.228;2023-09-19T15:48:53;20.10;1.00
318;DHT22;146;53.448;10.228;2023-09-19T15:51:19;20.10;1.00
318;DHT22;146;53.448;10.228;2023-09-19T15:53:47;20.00;1.00
318;DHT22;146;53.448;10.228;2023-09-19T15:56:18;20.00;1.00
318;DHT22;146;53.448;10.228;2023-09-19T15:58:48;20.00;1.00
318;DHT22;146;53.448;10.228;2023-09-19T16:01:16;20.00;1.00
318;DHT22;146;53.448;10.228;2023-09-19T16:03:45;20.00;1.00
318;DHT22;146;53.448;10.228;2023-09-19T16:06:17;20.10;1.00
318;DHT22;146;53.448;10.228;2023-09-19T16:08:47;20.00;1.00
318;DHT22;146;53.448;10.228;2023-09-19T16:11:16;20.00;1.00
318;DHT22;146;53.448;10.228;2023-09-19T16:13:44;20.00;1.00
318;DHT22;146;53.448;10.228;2023-09-19T16:16:13;20.00;1.00
318;DHT22;146;53.448;10.228;2023-09-19T16:18:45;20.00;1.00
318;DHT22;146;53.448;10.228;2023-09-19T16:21:14;19.90;1.00
318;DHT22;146;53.448;10.228;2023-09-19T16:23:44;19.80;1.00
318;DHT22;146;53.448;10.228;2023-09-19T16:26:11;19.80;1.00
318;DHT22;146;53.448;10.228;2023-09-19T16:28:39;19.80;1.00
318;DHT22;146;53.448;10.228;2023-09-19T16:31:07;19.80;1.00
318;DHT22;146;53.448;10.228;2023-09-19T16:33:37;19.80;1.00
318;DHT22;146;53.448;10.228;2023-09-19T16:36:10;19.70;1.00
318;DHT22;146;53.448;10.228;2023-09-19T16:38:37;19.70;1.00
318;DHT22;146;53.448;10.228;2023-09-19T16:41:05;19.60;1.00
318;DHT22;146;53.448;10.228;2023-09-19T16:43:32;19.60;1.00
318;DHT22;146;53.448;10.228;2023-09-19T16:46:00;19.60;1.00
318;DHT22;146;53.448;10.228;2023-09-19T16:48:27;19.50;1.00
318;DHT22;146;53.448;10.228;2023-09-19T16:51:00;19.50;1.00
318;DHT22;146;53.448;10.228;2023-09-19T16:53:29;19.50;1.00
318;DHT22;146;53.448;10.228;2023-09-19T16:56:01;19.50;1.00
318;DHT22;146;53.448;10.228;2023-09-19T16:58:28;19.50;1.00
318;DHT22;146;53.448;10.228;2023-09-19T17:00:58;19.50;1.00